Latest Weather Observations for Shay Gap

IDW60801

Issued at 2:02 pm WST Saturday 29 August 2015 (issued every 30 minutes, with the page automatically refreshed every 10 minutes)

About weather observations | Map of weather stations | Latest weather observations for WA | Other Formats
Station Details ID: 504045 Name: SHAY GAP Lat: -20.43 Lon: 120.13 Height: 173.83 m
Data from the previous 72 hours. | See also: Recent months for locations in Western Australia
Date/Time
WST
Temp
°C
App
Temp
°C
Dew
Point
Rel
Hum
%
Delta-T
°C
Wind Press
QNH
hPa
Press
MSL
hPa
Rain
since 9 am
mm
Dir
 
Spd
km/h
Gust
km/h
Spd
kts
Gust
kts
29/02:00pm 29.1 26.5 12.1 35 10.0 NNW 17 26 9 14 1014.6 1014.0 0.0
29/01:30pm 29.0 27.2 13.2 37 9.4 NNW 15 28 8 15 1015.1 1014.5 0.0
29/01:00pm 27.6 25.2 12.8 40 8.7 NNW 17 30 9 16 1015.6 1015.0 0.0
29/12:30pm 27.9 26.5 13.4 40 8.6 NW 13 22 7 12 1016.0 1015.4 0.0
29/12:00pm 26.6 24.5 13.7 45 7.7 NW 17 28 9 15 1016.5 1015.9 0.0
29/11:30am 25.9 25.1 15.0 51 6.6 WSW 13 22 7 12 1017.3 1016.7 0.0
29/11:00am 24.9 23.8 14.4 52 6.3 WSW 13 26 7 14 1018.0 1017.4 0.0
29/10:30am 24.4 23.1 14.8 55 5.8 NW 15 24 8 13 1018.6 1018.0 0.0
29/10:00am 24.0 22.1 15.2 58 5.3 WNW 19 26 10 14 1018.7 1018.1 0.0
29/09:30am 22.8 20.7 15.1 62 4.6 W 20 28 11 15 1018.9 1018.3 0.0
29/09:00am 22.4 21.1 15.7 66 4.0 WNW 17 24 9 13 1018.9 1018.3 0.0
29/08:30am 21.4 19.8 15.9 71 3.3 W 19 24 10 13 1018.8 1018.2 0.0
29/08:00am 20.5 18.9 15.9 75 2.8 W 19 24 10 13 1018.3 1017.7 0.0
29/07:30am 19.4 18.8 16.6 84 1.7 W 15 20 8 11 1017.9 1017.3 0.0
29/07:00am 18.2 18.5 17.0 93 0.7 W 11 17 6 9 1017.4 1016.8 0.0
29/06:50am 17.9 18.2 17.1 95 0.5 WSW 11 17 6 9 1017.2 1016.6 0.0
29/06:30am 17.7 17.7 17.1 96 0.4 WSW 13 19 7 10 1016.9 1016.2 0.0
29/06:12am 17.4 17.7 16.9 97 0.3 WSW 11 15 6 8 1016.6 1016.0 0.0
29/06:00am 17.1 16.9 16.6 97 0.3 WSW 13 15 7 8 1016.6 1016.0 0.0
29/05:30am 17.3 17.5 16.7 96 0.4 W 11 13 6 7 1016.3 1015.7 0.0
29/05:00am 17.4 17.2 16.6 95 0.5 W 13 17 7 9 1015.9 1015.3 0.0
29/04:30am 17.7 17.5 16.7 94 0.6 W 13 17 7 9 1015.7 1015.1 0.0
29/04:00am 17.8 17.6 16.7 93 0.7 W 13 17 7 9 1015.5 1014.9 0.0
29/03:30am 17.9 16.8 16.4 91 0.9 W 17 20 9 11 1015.7 1015.1 0.0
29/03:00am 18.0 16.8 16.2 89 1.1 W 17 24 9 13 1015.8 1015.2 0.0
29/02:30am 18.1 17.3 16.1 88 1.2 W 15 20 8 11 1016.0 1015.4 0.0
29/02:00am 18.2 17.4 16.0 87 1.3 W 15 20 8 11 1016.2 1015.6 0.0
29/01:30am 18.4 17.5 15.8 85 1.5 W 15 19 8 10 1016.4 1015.8 0.0
29/01:00am 18.9 18.0 15.9 83 1.8 W 15 20 8 11 1016.4 1015.8 0.0
29/12:30am 19.2 18.0 16.2 83 1.8 W 17 22 9 12 1016.6 1016.0 0.0
29/12:00am 19.5 18.2 16.7 84 1.7 W 19 24 10 13 1016.9 1016.2 0.0
 
Date/Time
WST
Temp
°C
App
Temp
°C
Dew
Point
Rel
Hum
%
Delta-T
°C
Wind Press
QNH
hPa
Press
MSL
hPa
Rain
since 9 am
mm
Dir
 
Spd
km/h
Gust
km/h
Spd
kts
Gust
kts
28/11:30pm 19.7 18.4 16.7 83 1.8 W 19 26 10 14 1017.1 1016.5 0.0
28/11:00pm 19.9 19.1 17.1 84 1.7 W 17 24 9 13 1017.2 1016.6 0.0
28/10:30pm 20.2 19.5 17.4 84 1.7 W 17 20 9 11 1017.3 1016.7 0.0
28/10:00pm 20.2 19.9 16.4 79 2.3 WNW 13 15 7 8 1017.4 1016.8 0.0
28/09:30pm 20.8 19.6 16.2 75 2.8 WNW 17 20 9 11 1017.4 1016.8 0.0
28/09:00pm 21.0 20.2 16.0 73 3.0 WNW 15 20 8 11 1017.2 1016.6 0.0
28/08:30pm 20.9 20.3 15.7 72 3.1 WNW 13 20 7 11 1017.0 1016.3 0.0
28/08:00pm 21.5 20.4 15.3 68 3.7 NW 15 19 8 10 1016.5 1015.9 0.0
28/07:30pm 22.0 21.1 14.9 64 4.2 NNW 13 19 7 10 1016.1 1015.5 0.0
28/07:00pm 22.8 21.2 15.1 62 4.6 NW 17 20 9 11 1015.9 1015.3 0.0
28/06:30pm 23.9 21.7 14.3 55 5.7 NW 19 24 10 13 1015.3 1014.7 0.0
28/06:00pm 25.3 22.8 13.5 48 7.0 NW 19 26 10 14 1014.8 1014.2 0.0
28/05:30pm 27.3 24.0 12.9 41 8.5 NW 22 30 12 16 1014.5 1013.9 0.0
28/05:00pm 29.0 25.0 10.6 32 10.5 NNW 22 32 12 17 1014.1 1013.5 0.0
28/04:30pm 29.6 25.4 11.2 32 10.7 NNW 24 30 13 16 1013.9 1013.3 0.0
28/04:00pm 29.9 26.5 11.4 32 10.8 NNW 20 32 11 17 1013.7 1013.1 0.0
28/03:30pm 30.7 27.2 12.1 32 11.0 NNW 22 35 12 19 1013.7 1013.1 0.0
28/03:00pm 31.2 28.2 12.1 31 11.3 NNW 19 30 10 16 1013.7 1013.1 0.0
28/02:30pm 31.8 28.7 8.7 24 13.0 NNE 15 30 8 16 1013.8 1013.2 0.0
28/02:00pm 31.3 28.5 10.1 27 12.2 N 15 24 8 13 1014.1 1013.5 0.0
28/01:30pm 31.4 28.1 9.6 26 12.4 NNE 17 30 9 16 1014.4 1013.8 0.0
28/01:00pm 31.0 27.1 8.7 25 12.5 N 19 30 10 16 1014.9 1014.3 0.0
28/12:30pm 31.0 26.4 8.1 24 12.7 ENE 22 35 12 19 1015.3 1014.7 0.0
28/12:00pm 30.5 26.6 9.4 27 11.9 NE 20 32 11 17 1015.7 1015.1 0.0
28/11:30am 29.7 25.9 9.8 29 11.3 NE 20 30 11 16 1016.3 1015.7 0.0
28/11:00am 28.5 25.1 10.7 33 10.2 NNE 19 26 10 14 1016.8 1016.1 0.0
28/10:30am 27.5 25.6 11.9 38 9.1 NE 13 19 7 10 1017.2 1016.6 0.0
28/10:00am 26.6 25.6 12.3 41 8.3 NNE 9 13 5 7 1017.7 1017.1 0.0
28/09:30am 25.1 25.0 13.3 48 6.9 N 6 7 3 4 1018.0 1017.4 0.0
28/09:00am 23.5 23.4 13.9 55 5.7 NNW 7 9 4 5 1017.9 1017.3 0.0
28/08:30am 22.1 22.4 14.5 62 4.5 W 6 9 3 5 1017.7 1017.1 0.0
28/08:00am 20.4 21.3 16.2 77 2.5 W 6 9 3 5 1017.6 1017.0 0.0
28/07:51am 19.6 21.5 16.8 84 1.7 W 2 6 1 3 1017.6 1017.0 0.0
28/07:30am 17.7 20.1 16.9 95 0.5 CALM 0 0 0 0 1017.5 1016.9 0.0
28/07:00am 16.0 17.8 15.5 97 0.3 CALM 0 0 0 0 1017.2 1016.6 0.0
28/06:30am 15.0 15.4 14.7 98 0.2 W 6 7 3 4 1016.8 1016.1 0.0
28/06:00am 14.6 14.6 14.3 98 0.2 W 7 7 4 4 1016.4 1015.8 0.0
28/05:30am 15.1 15.5 14.8 98 0.2 W 6 7 3 4 1016.3 1015.7 0.0
28/05:00am 15.1 15.3 14.8 98 0.2 W 7 9 4 5 1016.2 1015.6 0.0
28/04:30am 15.3 15.1 14.8 97 0.3 W 9 9 5 5 1015.9 1015.3 0.0
28/04:00am 16.2 16.8 15.7 97 0.3 W 7 9 4 5 1015.8 1015.2 0.0
28/03:30am 16.2 16.9 15.7 97 0.3 W 6 7 3 4 1015.8 1015.2 0.0
28/03:07am 15.9 16.3 15.3 96 0.4 W 7 7 4 4 1015.8 1015.2 0.0
28/03:00am 15.9 16.4 15.1 95 0.5 W 6 7 3 4 1015.9 1015.3 0.0
28/02:30am 16.7 17.2 15.1 90 0.9 W 6 6 3 3 1016.1 1015.5 0.0
28/02:00am 17.5 19.5 16.0 91 0.9 CALM 0 0 0 0 1016.3 1015.7 0.0
28/01:30am 17.7 18.8 16.6 93 0.7 W 6 7 3 4 1016.4 1015.8 0.0
28/01:00am 17.7 18.6 16.6 93 0.7 W 7 7 4 4 1016.5 1015.9 0.0
28/12:30am 17.9 18.8 16.6 92 0.8 W 7 9 4 5 1016.9 1016.2 0.0
28/12:00am 18.1 20.0 16.6 91 0.9 W 2 7 1 4 1017.0 1016.3 0.0
 
Date/Time
WST
Temp
°C
App
Temp
°C
Dew
Point
Rel
Hum
%
Delta-T
°C
Wind Press
QNH
hPa
Press
MSL
hPa
Rain
since 9 am
mm
Dir
 
Spd
km/h
Gust
km/h
Spd
kts
Gust
kts
27/11:30pm 18.8 20.0 16.9 89 1.2 W 6 7 3 4 1017.1 1016.5 0.0
27/11:00pm 19.9 21.6 18.0 89 1.2 W 6 7 3 4 1017.1 1016.5 0.0
27/10:30pm 20.0 20.8 18.1 89 1.2 W 11 13 6 7 1016.9 1016.2 0.0
27/10:00pm 20.2 21.1 18.5 90 1.1 W 11 13 6 7 1017.2 1016.6 0.0
27/09:30pm 20.3 21.5 18.2 88 1.3 WNW 9 13 5 7 1017.2 1016.6 0.0
27/09:00pm 20.8 21.4 18.7 88 1.3 WNW 13 17 7 9 1017.0 1016.3 0.0
27/08:30pm 21.0 21.1 18.4 85 1.6 WNW 15 20 8 11 1016.9 1016.2 0.0
27/08:00pm 21.4 21.3 17.8 80 2.2 NW 15 19 8 10 1016.4 1015.8 0.0
27/07:30pm 21.9 19.9 11.6 52 5.8 NNW 13 15 7 8 1016.0 1015.4 0.0
27/07:00pm 23.2 20.0 6.9 35 8.5 NNW 13 19 7 10 1015.6 1015.0 0.0
27/06:30pm 24.4 20.2 5.7 30 9.6 N 17 22 9 12 1015.1 1014.5 0.0
27/06:00pm 26.1 21.1 3.4 23 11.3 N 19 22 10 12 1014.6 1014.0 0.0
27/05:30pm 28.1 22.7 4.4 22 12.2 N 22 28 12 15 1014.1 1013.5 0.0
27/05:00pm 29.6 24.4 5.6 22 12.7 N 22 30 12 16 1014.0 1013.4 0.0
27/04:30pm 30.7 25.8 5.2 20 13.5 N 20 30 11 16 1013.7 1013.1 0.0
27/04:00pm 31.2 26.1 4.1 18 14.1 NNW 20 28 11 15 1013.6 1013.0 0.0
27/03:30pm 32.0 26.7 2.1 15 15.1 N 19 28 10 15 1013.5 1012.9 0.0
27/03:00pm 32.4 27.8 1.5 14 15.5 NE 15 26 8 14 1013.6 1013.0 0.0
27/02:30pm 32.1 27.1 1.3 14 15.4 NE 17 30 9 16 1013.8 1013.2 0.0
27/02:00pm 31.8 25.9 2.0 15 15.0 NNE 22 35 12 19 1014.3 1013.7 0.0
27/01:30pm 31.6 25.9 2.7 16 14.7 NE 22 35 12 19 1014.5 1013.9 0.0
27/01:00pm 31.4 26.0 2.6 16 14.6 ENE 20 30 11 16 1015.1 1014.5 0.0
27/12:30pm 31.5 25.2 1.8 15 14.9 NE 24 37 13 20 1015.4 1014.8 0.0
27/12:00pm 30.7 24.1 2.0 16 14.3 NE 26 39 14 21 1015.9 1015.3 0.0
27/11:30am 30.2 23.2 -0.2 14 14.6 NE 26 35 14 19 1016.3 1015.7 0.0
27/11:00am 29.8 23.2 -0.5 14 14.4 NE 24 37 13 20 1017.0 1016.3 0.0
27/10:30am 29.0 22.2 -2.2 13 14.3 E 24 35 13 19 1017.3 1016.7 0.0
27/10:00am 28.2 21.0 -1.8 14 13.8 E 26 35 14 19 1017.8 1017.2 0.0
27/09:30am 26.7 19.4 -3.0 14 13.2 E 26 32 14 17 1017.8 1017.2 0.0
27/09:00am 25.4 17.7 -3.1 15 12.5 E 28 35 15 19 1018.0 1017.4 0.0
27/08:30am 24.0 16.4 -2.5 17 11.6 ESE 28 35 15 19 1018.0 1017.4 0.0
27/08:00am 22.5 15.7 -1.6 20 10.6 E 24 30 13 16 1017.9 1017.3 0.0
27/07:30am 20.7 14.7 -1.8 22 9.7 ESE 20 28 11 15 1017.5 1016.9 0.0
27/07:00am 18.9 13.5 -1.0 26 8.6 ESE 17 20 9 11 1017.1 1016.5 0.0
27/06:30am 17.4 13.3 -0.3 30 7.7 ESE 11 17 6 9 1016.9 1016.2 0.0
27/06:00am 16.4 13.2 0.5 34 6.9 SE 7 9 4 5 1016.8 1016.1 0.0
27/05:30am 17.1 13.1 0.7 33 7.2 SSE 11 13 6 7 1016.5 1015.9 0.0
27/05:00am 17.7 14.5 0.8 32 7.5 E 7 9 4 5 1016.2 1015.6 0.0
27/04:30am 17.4 14.2 1.0 33 7.3 E 7 9 4 5 1016.0 1015.4 0.0
27/04:00am 19.1 15.9 0.7 29 8.2 E 7 9 4 5 1016.0 1015.4 0.0
27/03:30am 19.5 15.9 0.5 28 8.5 E 9 11 5 6 1016.1 1015.5 0.0
27/03:00am 18.8 15.6 0.9 30 8.0 E 7 9 4 5 1016.0 1015.4 0.0
27/02:30am 19.1 15.6 1.1 30 8.1 ENE 9 11 5 6 1016.1 1015.5 0.0
27/02:00am 19.5 16.3 1.0 29 8.4 NE 7 11 4 6 1016.1 1015.5 0.0
27/01:30am 19.4 15.5 1.4 30 8.2 ENE 11 11 6 6 1016.2 1015.6 0.0
27/01:00am 19.9 16.5 1.8 30 8.3 ENE 9 11 5 6 1016.4 1015.8 0.0
27/12:30am 22.4 17.0 1.4 25 9.8 E 19 26 10 14 1016.3 1015.7 0.0
27/12:00am 19.4 16.8 4.3 37 7.3 ENE 7 11 4 6 1016.3 1015.7 0.0
 
Date/Time
WST
Temp
°C
App
Temp
°C
Dew
Point
Rel
Hum
%
Delta-T
°C
Wind Press
QNH
hPa
Press
MSL
hPa
Rain
since 9 am
mm
Dir
 
Spd
km/h
Gust
km/h
Spd
kts
Gust
kts
26/11:30pm 19.4 17.0 4.3 37 7.3 SE 6 9 3 5 1016.5 1015.9 0.0
26/11:00pm 19.3 16.4 4.6 38 7.1 SSE 9 11 5 6 1016.5 1015.9 0.0
26/10:30pm 19.5 16.6 4.4 37 7.3 SSE 9 11 5 6 1016.4 1015.8 0.0
26/10:00pm 20.1 17.2 4.6 36 7.6 SSE 9 9 5 5 1016.4 1015.8 0.0
26/09:30pm 19.9 17.4 4.8 37 7.4 SSE 7 11 4 6 1016.4 1015.8 0.0
26/09:00pm 19.5 16.1 4.0 36 7.4 S 11 13 6 7 1016.4 1015.8 0.0
26/08:30pm 20.9 18.0 4.5 34 8.0 N 9 11 5 6 1016.3 1015.7 0.0
26/08:00pm 22.5 20.0 5.0 32 8.7 N 7 9 4 5 1016.0 1015.4 0.0
26/07:30pm 22.4 19.4 4.0 30 9.0 N 9 11 5 6 1015.9 1015.3 0.0
26/07:19pm 23.3 20.0 4.3 29 9.4 N 11 13 6 7 1015.8 1015.2 0.0
26/07:00pm 24.1 20.3 4.0 27 10.0 N 13 15 7 8 1015.6 1015.0 0.0
26/06:30pm 25.6 21.7 3.5 24 11.0 NNW 13 15 7 8 1015.3 1014.7 0.0
26/06:00pm 27.3 23.5 3.7 22 11.9 NNW 13 15 7 8 1015.0 1014.4 0.0
26/05:30pm 29.5 25.3 1.9 17 13.7 ENE 13 17 7 9 1014.6 1014.0 0.0
26/05:00pm 30.5 26.3 1.9 16 14.3 NE 13 20 7 11 1014.4 1013.8 0.0
26/04:30pm 30.7 25.8 2.0 16 14.4 NNE 17 26 9 14 1014.2 1013.6 0.0
26/04:00pm 31.0 26.5 2.3 16 14.5 NE 15 30 8 16 1014.0 1013.4 0.0
26/03:30pm 31.3 26.3 1.6 15 14.8 NE 17 20 9 11 1014.0 1013.4 0.0
26/03:00pm 30.7 26.2 2.0 16 14.4 NE 15 30 8 16 1014.3 1013.7 0.0
26/02:30pm 31.1 26.5 1.4 15 14.7 E 15 30 8 16 1014.6 1014.0 0.0

Other Formats:

Comma delimited format used in spreadsheet applications
http://www.bom.gov.au/fwo/IDW60801/IDW60801.99311.axf

JavaScript Object Notation format (JSON) in row-major order
http://www.bom.gov.au/fwo/IDW60801/IDW60801.99311.json